Time;durP1;ratioP1;P1;durP2;ratioP2;P2;SDS_P1;SDS_P2;PMS_P1;PMS_P2;Temp;Humidity;BMP_temperature;BMP_pressure;BME280_temperature;BME280_humidity;BME280_pressure;Samples;Min_cycle;Max_cycle;Signal;HPM_P1;HPM_P2
2022/10/15 00:01:43;;;;;;;1.38;0.70;;;13.10;99.90;;;;;;5029635;28;20022;-83
2022/10/15 00:04:09;;;;;;;2.15;0.80;;;13.10;99.90;;;;;;5045974;28;20037;-83
2022/10/15 00:06:34;;;;;;;0.77;0.77;;;13.10;99.90;;;;;;5034423;28;20025;-83
2022/10/15 00:09:00;;;;;;;2.45;1.00;;;13.10;99.90;;;;;;5041659;28;20036;-83
2022/10/15 00:11:27;;;;;;;0.82;0.77;;;13.10;99.90;;;;;;5039725;28;20361;-84
2022/10/15 00:13:55;;;;;;;3.28;0.90;;;13.10;99.90;;;;;;5039385;28;20037;-83
2022/10/15 00:16:24;;;;;;;0.75;0.75;;;13.10;99.90;;;;;;5044645;28;20013;-83
2022/10/15 00:18:51;;;;;;;0.73;0.68;;;13.10;99.90;;;;;;5043323;28;20021;-83
2022/10/15 00:21:18;;;;;;;0.82;0.50;;;13.10;99.90;;;;;;5043008;28;20073;-83
2022/10/15 00:23:45;;;;;;;0.70;0.70;;;13.10;99.90;;;;;;5017794;28;20026;-82
2022/10/15 00:26:14;;;;;;;0.73;0.60;;;13.10;99.90;;;;;;5006998;28;20033;-83
2022/10/15 00:28:40;;;;;;;4.53;1.10;;;13.10;99.90;;;;;;5009062;28;20056;-82
2022/10/15 00:31:09;;;;;;;2.40;0.70;;;13.10;99.90;;;;;;5046337;28;20080;-82
2022/10/15 00:33:35;;;;;;;2.00;1.00;;;13.10;99.90;;;;;;5041963;28;20025;-83
2022/10/15 00:36:07;;;;;;;0.98;0.82;;;13.10;99.90;;;;;;5021910;28;20402;-83
2022/10/15 00:38:34;;;;;;;1.45;0.75;;;13.10;99.90;;;;;;5043141;28;20033;-82
2022/10/15 00:41:00;;;;;;;0.88;0.88;;;13.10;99.90;;;;;;5033596;28;20799;-82
2022/10/15 00:43:57;;;;;;;0.90;0.90;;;13.00;99.90;;;;;;5026479;28;20026;-83
2022/10/15 00:46:23;;;;;;;0.70;0.70;;;13.00;99.90;;;;;;5023189;28;20029;-84
2022/10/15 00:49:00;;;;;;;0.52;0.52;;;13.00;99.90;;;;;;5017942;28;20117;-82
2022/10/15 00:51:31;;;;;;;2.70;1.17;;;13.00;99.90;;;;;;5017120;28;20109;-81
2022/10/15 00:53:58;;;;;;;2.05;0.80;;;13.00;99.90;;;;;;5025341;28;20033;-84
2022/10/15 00:56:26;;;;;;;1.13;0.80;;;13.00;99.90;;;;;;5027203;28;20075;-84
2022/10/15 00:58:54;;;;;;;1.20;0.60;;;13.00;99.90;;;;;;5026802;28;20018;-82
2022/10/15 01:01:20;;;;;;;0.47;0.47;;;13.00;99.90;;;;;;5022733;28;20112;-83
2022/10/15 01:03:46;;;;;;;2.25;0.65;;;13.00;99.90;;;;;;5044272;28;20084;-81
2022/10/15 01:06:12;;;;;;;0.60;0.60;;;13.00;99.90;;;;;;5031241;28;20029;-82
2022/10/15 01:08:38;;;;;;;1.02;0.93;;;13.00;99.90;;;;;;5046834;28;20029;-83
2022/10/15 01:11:22;;;;;;;3.03;0.70;;;13.00;99.90;;;;;;5041428;28;20041;-83
2022/10/15 01:14:26;;;;;;;0.95;0.90;;;13.00;99.90;;;;;;5021652;28;20057;-83
2022/10/15 01:16:58;;;;;;;1.40;0.60;;;13.00;99.90;;;;;;5034677;28;20030;-83
2022/10/15 01:19:42;;;;;;;0.57;0.57;;;13.00;99.90;;;;;;5048547;28;20026;-83
2022/10/15 01:22:47;;;;;;;0.80;0.63;;;13.00;99.90;;;;;;5045623;28;20059;-83
2022/10/15 01:25:56;;;;;;;1.67;0.80;;;13.00;99.90;;;;;;5019138;28;20117;-83
2022/10/15 01:28:49;;;;;;;1.05;0.73;;;13.00;99.90;;;;;;5050026;28;20014;-84
2022/10/15 01:31:18;;;;;;;1.40;1.05;;;13.00;99.90;;;;;;5045128;28;20036;-84
2022/10/15 01:33:56;;;;;;;1.30;0.90;;;12.90;99.90;;;;;;5020399;28;20098;-84
2022/10/15 01:36:44;;;;;;;2.63;0.90;;;12.90;99.90;;;;;;5025983;28;20028;-84
2022/10/15 01:39:29;;;;;;;0.70;0.70;;;12.90;99.90;;;;;;5027669;28;20041;-83
2022/10/15 01:42:12;;;;;;;1.08;0.98;;;12.80;99.90;;;;;;5045308;28;20392;-83
2022/10/15 01:44:45;;;;;;;2.85;1.00;;;12.80;99.90;;;;;;5027810;28;20037;-82
2022/10/15 01:47:18;;;;;;;1.35;0.70;;;12.80;99.90;;;;;;5025184;28;20078;-82
2022/10/15 01:49:47;;;;;;;1.27;0.63;;;12.80;99.90;;;;;;5025849;28;20029;-83
2022/10/15 01:52:20;;;;;;;0.80;0.80;;;12.80;99.90;;;;;;5044624;28;20029;-84
2022/10/15 01:54:48;;;;;;;0.77;0.77;;;12.80;99.90;;;;;;5027529;28;20096;-80
2022/10/15 01:57:15;;;;;;;2.88;1.05;;;12.90;99.90;;;;;;5053394;28;20041;-81
2022/10/15 01:59:42;;;;;;;1.30;0.80;;;12.80;99.90;;;;;;5038958;28;20489;-83
2022/10/15 02:02:07;;;;;;;1.27;0.73;;;12.80;99.90;;;;;;5011861;28;20053;-83
2022/10/15 02:04:37;;;;;;;0.60;0.60;;;12.80;99.90;;;;;;5012130;28;20030;-81
2022/10/15 02:07:16;;;;;;;1.15;0.68;;;12.90;99.90;;;;;;5028783;28;20025;-83
2022/10/15 02:09:57;;;;;;;0.60;0.60;;;12.90;99.90;;;;;;5032490;28;20052;-81
2022/10/15 02:12:34;;;;;;;0.60;0.57;;;12.90;99.90;;;;;;5045473;28;20025;-81
2022/10/15 02:15:04;;;;;;;0.93;0.80;;;12.90;99.90;;;;;;5026119;28;20172;-83
2022/10/15 02:17:44;;;;;;;1.38;0.73;;;12.80;99.90;;;;;;5029876;28;20270;-83
2022/10/15 02:20:15;;;;;;;1.02;0.65;;;12.90;99.90;;;;;;5006251;28;20018;-82
2022/10/15 02:23:01;;;;;;;0.70;0.63;;;12.80;99.90;;;;;;5021385;28;20025;-83
2022/10/15 02:25:28;;;;;;;1.95;0.80;;;12.80;99.90;;;;;;5038133;28;20036;-83
2022/10/15 02:27:56;;;;;;;1.80;1.08;;;12.80;99.90;;;;;;5021427;28;20479;-82
2022/10/15 02:30:24;;;;;;;1.23;0.70;;;12.90;99.90;;;;;;5019748;28;20033;-83
2022/10/15 02:32:53;;;;;;;0.70;0.65;;;12.80;99.90;;;;;;5027916;28;20057;-83
2022/10/15 02:35:20;;;;;;;2.42;0.70;;;12.80;99.90;;;;;;5026706;28;20029;-83
2022/10/15 02:37:49;;;;;;;0.60;0.60;;;12.80;99.90;;;;;;5001705;28;20052;-84
2022/10/15 02:40:15;;;;;;;0.57;0.50;;;12.90;99.90;;;;;;5000047;28;20006;-82
2022/10/15 02:42:40;;;;;;;1.25;0.60;;;12.80;99.90;;;;;;5022361;28;20108;-84
2022/10/15 02:45:06;;;;;;;1.38;0.60;;;12.80;99.90;;;;;;5019046;28;20071;-82
2022/10/15 02:47:32;;;;;;;0.40;0.40;;;12.80;99.90;;;;;;5018637;28;20025;-82
2022/10/15 02:49:58;;;;;;;1.10;0.70;;;12.80;99.90;;;;;;5037240;28;20163;-83
2022/10/15 02:52:24;;;;;;;0.50;0.50;;;12.80;99.90;;;;;;5001583;28;20025;-83
2022/10/15 02:54:50;;;;;;;0.82;0.70;;;12.90;99.90;;;;;;5005272;28;20537;-83
2022/10/15 02:57:16;;;;;;;0.75;0.52;;;12.90;99.90;;;;;;5020466;28;20025;-83
2022/10/15 02:59:41;;;;;;;1.00;0.82;;;12.90;99.90;;;;;;5037506;28;20041;-83
2022/10/15 03:02:07;;;;;;;0.50;0.50;;;12.90;99.90;;;;;;5036890;28;20034;-83
2022/10/15 03:04:33;;;;;;;1.65;0.45;;;12.90;99.90;;;;;;5010182;28;20053;-82
2022/10/15 03:06:58;;;;;;;1.30;0.80;;;12.90;99.90;;;;;;5034717;28;20038;-83
2022/10/15 03:09:24;;;;;;;0.68;0.68;;;12.90;99.90;;;;;;5027493;28;20489;-83
2022/10/15 03:11:49;;;;;;;0.57;0.57;;;12.90;99.90;;;;;;5017458;28;20128;-84
2022/10/15 03:14:15;;;;;;;1.35;0.70;;;12.90;99.90;;;;;;5019588;28;20026;-84
2022/10/15 03:16:44;;;;;;;1.40;0.98;;;12.90;99.90;;;;;;5039347;28;20021;-83
2022/10/15 03:19:10;;;;;;;0.93;0.30;;;12.90;99.90;;;;;;5036731;28;20025;-84
2022/10/15 03:21:36;;;;;;;0.93;0.80;;;12.90;99.90;;;;;;5019217;28;20175;-83
2022/10/15 03:24:04;;;;;;;0.47;0.47;;;13.00;99.90;;;;;;5027498;28;20032;-83
2022/10/15 03:26:29;;;;;;;1.52;0.70;;;13.00;99.90;;;;;;5017603;28;20033;-83
2022/10/15 03:28:57;;;;;;;0.55;0.55;;;12.90;99.90;;;;;;5022526;28;20030;-83
2022/10/15 03:31:23;;;;;;;0.50;0.50;;;12.90;99.90;;;;;;5018699;28;20033;-84
2022/10/15 03:33:49;;;;;;;1.23;0.70;;;12.90;99.90;;;;;;5051367;22;20042;-80
2022/10/15 03:36:15;;;;;;;0.47;0.47;;;12.90;99.90;;;;;;5039125;28;20025;-80
2022/10/15 03:38:40;;;;;;;0.55;0.52;;;12.90;99.90;;;;;;5022714;28;20037;-80
2022/10/15 03:41:06;;;;;;;0.30;0.30;;;13.00;99.90;;;;;;5039513;28;20073;-79
2022/10/15 03:43:32;;;;;;;1.85;0.88;;;13.00;99.90;;;;;;5041306;28;20033;-80
2022/10/15 03:46:01;;;;;;;1.75;0.70;;;13.00;99.90;;;;;;5025801;28;20058;-80
2022/10/15 03:48:27;;;;;;;1.48;0.50;;;13.00;99.90;;;;;;5038024;28;20029;-80
2022/10/15 03:50:52;;;;;;;1.38;0.50;;;13.00;99.90;;;;;;5022307;28;20390;-80
2022/10/15 03:53:18;;;;;;;2.20;0.47;;;13.10;99.90;;;;;;5040332;28;20131;-80
2022/10/15 03:55:44;;;;;;;0.43;0.43;;;13.10;99.90;;;;;;5028902;28;20056;-80
2022/10/15 03:58:09;;;;;;;0.90;0.63;;;13.10;99.90;;;;;;5035852;28;20033;-80
2022/10/15 04:00:35;;;;;;;0.47;0.40;;;13.10;99.90;;;;;;5022455;28;20106;-79
2022/10/15 04:03:01;;;;;;;0.55;0.47;;;13.10;99.90;;;;;;5040752;28;20033;-80
2022/10/15 04:05:27;;;;;;;1.23;0.52;;;13.10;99.90;;;;;;5023637;28;20014;-79
2022/10/15 04:07:52;;;;;;;0.30;0.30;;;13.20;99.90;;;;;;5037161;28;20035;-78
2022/10/15 04:10:18;;;;;;;0.80;0.52;;;13.20;99.90;;;;;;5027591;28;20076;-78
2022/10/15 04:12:43;;;;;;;1.20;0.52;;;13.20;99.90;;;;;;5041426;28;20053;-80
2022/10/15 04:15:09;;;;;;;0.50;0.50;;;13.20;99.90;;;;;;5037855;28;20072;-79
2022/10/15 04:17:35;;;;;;;0.77;0.50;;;13.20;99.90;;;;;;5036984;28;20022;-80
2022/10/15 04:20:00;;;;;;;0.35;0.35;;;13.20;99.90;;;;;;5038206;28;20032;-80
2022/10/15 04:22:26;;;;;;;0.40;0.35;;;13.20;99.90;;;;;;5038240;28;20023;-80
2022/10/15 04:24:52;;;;;;;0.45;0.45;;;13.30;99.90;;;;;;5016448;28;20034;-77
2022/10/15 04:27:17;;;;;;;0.55;0.32;;;13.30;99.90;;;;;;5027501;28;20068;-80
2022/10/15 04:29:43;;;;;;;0.70;0.40;;;13.30;99.90;;;;;;5031825;28;20025;-79
2022/10/15 04:32:13;;;;;;;0.30;0.30;;;13.40;99.90;;;;;;5035021;28;20026;-80
2022/10/15 04:34:39;;;;;;;0.35;0.35;;;13.40;99.90;;;;;;5030264;28;20034;-80
2022/10/15 04:37:05;;;;;;;0.30;0.30;;;13.40;99.90;;;;;;5019549;28;20084;-82
2022/10/15 04:39:31;;;;;;;0.85;0.30;;;13.40;99.90;;;;;;5041582;28;20021;-82
2022/10/15 04:41:56;;;;;;;0.60;0.30;;;13.40;99.90;;;;;;5040938;28;20026;-80
2022/10/15 04:44:22;;;;;;;1.25;0.40;;;13.40;99.90;;;;;;5040378;28;20437;-80
2022/10/15 04:46:47;;;;;;;0.43;0.30;;;13.40;99.90;;;;;;5041494;28;20033;-81
2022/10/15 04:49:13;;;;;;;0.30;0.30;;;13.40;99.90;;;;;;5018677;28;20474;-80
2022/10/15 04:51:39;;;;;;;0.47;0.38;;;13.50;99.90;;;;;;5054259;28;20049;-80
2022/10/15 04:54:04;;;;;;;0.30;0.30;;;13.50;99.90;;;;;;5037066;28;20034;-80
2022/10/15 04:56:30;;;;;;;0.25;0.25;;;13.50;99.90;;;;;;5034772;28;20037;-80
2022/10/15 04:58:56;;;;;;;0.40;0.40;;;13.50;99.90;;;;;;5012753;28;20028;-81
2022/10/15 05:01:22;;;;;;;0.50;0.47;;;13.60;99.90;;;;;;5026081;28;20033;-82
2022/10/15 05:03:48;;;;;;;0.20;0.20;;;13.60;99.90;;;;;;5014409;28;20026;-81
2022/10/15 05:06:21;;;;;;;0.45;0.30;;;13.60;99.90;;;;;;5025171;28;20026;-82
2022/10/15 05:08:47;;;;;;;0.40;0.40;;;13.70;99.90;;;;;;5033978;28;20041;-81
2022/10/15 05:11:19;;;;;;;1.73;0.32;;;13.70;99.90;;;;;;5029611;28;20033;-82
2022/10/15 05:13:45;;;;;;;0.30;0.30;;;13.80;99.90;;;;;;5029228;28;20386;-82
2022/10/15 05:16:22;;;;;;;0.77;0.32;;;13.90;99.90;;;;;;5001705;28;20265;-81
2022/10/15 05:18:51;;;;;;;0.20;0.20;;;13.90;99.90;;;;;;5010423;28;20087;-81
2022/10/15 05:21:17;;;;;;;1.15;0.55;;;14.00;99.90;;;;;;5004801;28;20049;-80
2022/10/15 05:23:44;;;;;;;0.45;0.30;;;14.00;99.90;;;;;;5009551;28;20036;-81
2022/10/15 05:26:13;;;;;;;0.25;0.25;;;14.00;99.90;;;;;;5039529;28;20053;-81
2022/10/15 05:28:39;;;;;;;0.55;0.20;;;14.10;99.90;;;;;;5021327;28;20423;-82
2022/10/15 05:31:06;;;;;;;0.25;0.25;;;14.10;99.90;;;;;;5038587;28;20033;-82
2022/10/15 05:33:32;;;;;;;0.28;0.28;;;14.10;99.90;;;;;;5020757;28;20458;-80
2022/10/15 05:36:08;;;;;;;0.30;0.30;;;14.20;99.90;;;;;;5022785;28;20437;-81
2022/10/15 05:38:33;;;;;;;1.75;0.40;;;14.20;99.90;;;;;;5020097;28;20018;-82
2022/10/15 05:40:59;;;;;;;0.40;0.40;;;14.20;99.90;;;;;;5021949;28;20028;-81
2022/10/15 05:43:25;;;;;;;0.63;0.30;;;14.20;99.90;;;;;;5004957;28;20033;-80
2022/10/15 05:45:54;;;;;;;0.20;0.20;;;14.20;99.90;;;;;;5026226;28;20033;-81
2022/10/15 05:48:20;;;;;;;3.22;0.40;;;14.20;99.90;;;;;;5026222;28;20030;-81
2022/10/15 05:50:46;;;;;;;0.40;0.40;;;14.20;99.90;;;;;;5023616;28;20022;-81
2022/10/15 05:53:11;;;;;;;0.20;0.20;;;14.20;99.90;;;;;;5024375;28;20022;-82
2022/10/15 05:55:37;;;;;;;0.30;0.28;;;14.20;99.90;;;;;;5038011;28;20086;-82
2022/10/15 05:58:03;;;;;;;1.45;0.05;;;14.30;99.90;;;;;;5010591;28;20572;-81
2022/10/15 06:00:30;;;;;;;1.08;0.25;;;14.30;99.90;;;;;;5043055;28;20025;-82
2022/10/15 06:02:56;;;;;;;0.75;0.30;;;14.30;99.90;;;;;;5043292;28;20371;-82
2022/10/15 06:05:22;;;;;;;0.20;0.20;;;14.30;99.90;;;;;;5020119;28;20032;-81
2022/10/15 06:07:47;;;;;;;0.20;0.20;;;14.30;99.90;;;;;;5036850;28;20080;-80
2022/10/15 06:10:13;;;;;;;0.60;0.20;;;14.30;99.90;;;;;;5042575;28;20025;-80
2022/10/15 06:12:39;;;;;;;0.40;0.20;;;14.30;99.90;;;;;;5023377;28;20201;-80
2022/10/15 06:15:05;;;;;;;0.30;0.30;;;14.30;99.90;;;;;;5021849;28;20615;-81
2022/10/15 06:17:31;;;;;;;1.65;0.30;;;14.40;99.90;;;;;;5026695;28;20049;-81
2022/10/15 06:19:57;;;;;;;0.73;0.30;;;14.50;99.90;;;;;;5043591;28;20359;-82
2022/10/15 06:22:22;;;;;;;0.20;0.20;;;14.40;99.90;;;;;;5041430;28;20616;-80
2022/10/15 06:24:48;;;;;;;0.35;0.35;;;14.50;99.90;;;;;;5033308;28;20037;-82
2022/10/15 06:27:14;;;;;;;0.80;0.30;;;14.50;99.90;;;;;;5024356;28;20538;-81
2022/10/15 06:29:40;;;;;;;0.70;0.63;;;14.50;99.90;;;;;;5023470;28;20053;-81
2022/10/15 06:32:09;;;;;;;0.32;0.32;;;14.50;99.90;;;;;;5024352;28;20022;-80
2022/10/15 06:34:35;;;;;;;1.95;0.30;;;14.50;99.90;;;;;;5013660;28;20068;-81
2022/10/15 06:37:01;;;;;;;0.77;0.38;;;14.50;99.90;;;;;;5027115;28;20033;-81
2022/10/15 06:39:26;;;;;;;0.90;0.28;;;14.50;99.90;;;;;;5008987;28;20030;-81
2022/10/15 06:41:52;;;;;;;0.95;0.30;;;14.50;99.90;;;;;;5035173;28;20049;-80
2022/10/15 06:44:18;;;;;;;0.20;0.20;;;14.50;99.90;;;;;;5054700;28;20013;-80
2022/10/15 06:46:43;;;;;;;2.38;0.55;;;14.50;99.90;;;;;;5059234;28;20060;-80
2022/10/15 06:49:09;;;;;;;0.70;0.20;;;14.50;99.90;;;;;;5041510;28;20018;-80
2022/10/15 06:51:36;;;;;;;0.20;0.20;;;14.50;99.90;;;;;;5057480;28;20018;-80
2022/10/15 06:54:03;;;;;;;0.60;0.30;;;14.60;99.90;;;;;;5045845;28;20064;-81
2022/10/15 06:56:28;;;;;;;1.00;0.45;;;14.70;99.90;;;;;;5052696;28;20033;-80
2022/10/15 06:58:54;;;;;;;0.52;0.30;;;14.70;99.90;;;;;;5041120;28;20030;-80
2022/10/15 07:01:20;;;;;;;0.20;0.20;;;14.70;99.90;;;;;;5040129;28;20049;-81
2022/10/15 07:03:49;;;;;;;1.48;0.30;;;14.80;99.90;;;;;;5055596;28;20025;-80
2022/10/15 07:06:15;;;;;;;0.20;0.20;;;14.80;99.90;;;;;;5046947;28;20072;-81
2022/10/15 07:08:41;;;;;;;0.52;0.52;;;14.90;99.90;;;;;;5054514;28;20009;-81
2022/10/15 07:11:08;;;;;;;0.95;0.40;;;15.00;99.90;;;;;;5054375;28;20020;-81
2022/10/15 07:13:34;;;;;;;0.32;0.32;;;15.00;99.90;;;;;;5049553;28;20025;-82
2022/10/15 07:16:07;;;;;;;0.52;0.50;;;15.10;99.90;;;;;;5048968;28;20026;-80
2022/10/15 07:18:34;;;;;;;0.30;0.30;;;15.10;99.90;;;;;;5017992;28;20093;-81
2022/10/15 07:21:00;;;;;;;0.30;0.30;;;15.20;99.90;;;;;;5019348;28;20064;-81
2022/10/15 07:23:27;;;;;;;0.10;0.10;;;15.20;99.90;;;;;;5018395;28;20018;-82
2022/10/15 07:25:52;;;;;;;0.30;0.30;;;15.30;99.90;;;;;;5035018;28;20025;-80
2022/10/15 07:28:18;;;;;;;1.00;0.38;;;15.20;99.90;;;;;;5029701;28;20033;-81
2022/10/15 07:30:44;;;;;;;0.50;0.50;;;15.20;99.90;;;;;;5025548;28;20438;-82
2022/10/15 07:33:09;;;;;;;0.88;0.40;;;15.20;99.90;;;;;;5030889;28;20052;-82
2022/10/15 07:35:36;;;;;;;0.30;0.22;;;15.30;99.90;;;;;;5039026;28;20026;-82
2022/10/15 07:38:03;;;;;;;0.50;0.30;;;15.40;99.90;;;;;;5023975;28;20045;-81
2022/10/15 07:40:29;;;;;;;0.22;0.22;;;15.50;99.90;;;;;;5024652;28;20026;-81
2022/10/15 07:42:56;;;;;;;0.30;0.30;;;15.50;99.90;;;;;;5025329;28;20033;-81
2022/10/15 07:45:23;;;;;;;0.38;0.30;;;15.50;99.90;;;;;;5034442;28;20037;-81
2022/10/15 07:47:49;;;;;;;0.47;0.45;;;15.50;99.90;;;;;;5053603;28;20026;-80
2022/10/15 07:50:15;;;;;;;0.52;0.30;;;15.40;99.90;;;;;;5056181;28;20096;-81
2022/10/15 07:52:41;;;;;;;0.68;0.40;;;15.40;99.90;;;;;;5056406;28;20016;-81
2022/10/15 07:55:07;;;;;;;0.30;0.30;;;15.30;99.90;;;;;;5049426;28;20030;-81
2022/10/15 07:57:33;;;;;;;0.65;0.65;;;15.30;99.90;;;;;;5004796;28;20085;-82
2022/10/15 07:59:58;;;;;;;0.70;0.40;;;15.20;99.90;;;;;;5021125;28;20053;-81
2022/10/15 08:02:24;;;;;;;0.43;0.43;;;15.10;99.90;;;;;;5021769;28;20077;-81
2022/10/15 08:04:50;;;;;;;0.35;0.35;;;15.10;99.90;;;;;;5033668;28;20034;-81
2022/10/15 08:07:16;;;;;;;4.13;0.50;;;15.00;99.90;;;;;;5023175;28;20524;-81
2022/10/15 08:09:42;;;;;;;1.15;0.50;;;15.00;99.90;;;;;;5027956;28;20025;-79
2022/10/15 08:12:08;;;;;;;1.95;0.30;;;15.10;99.90;;;;;;5042039;28;20387;-81
2022/10/15 08:14:35;;;;;;;0.20;0.20;;;15.10;99.90;;;;;;5037248;28;20032;-81
2022/10/15 08:17:02;;;;;;;1.17;0.40;;;15.20;99.90;;;;;;5024505;28;20462;-81
2022/10/15 08:19:27;;;;;;;0.77;0.40;;;15.30;99.90;;;;;;5025045;28;20033;-82
2022/10/15 08:21:53;;;;;;;1.90;0.40;;;15.40;99.90;;;;;;5006638;28;20352;-81
2022/10/15 08:24:19;;;;;;;2.63;0.22;;;15.40;99.90;;;;;;5002632;28;20026;-82
2022/10/15 08:26:45;;;;;;;0.57;0.30;;;15.40;99.90;;;;;;5030516;28;20040;-81
2022/10/15 08:29:11;;;;;;;0.55;0.30;;;15.50;99.90;;;;;;5025195;28;20036;-82
2022/10/15 08:31:40;;;;;;;0.47;0.40;;;15.50;99.90;;;;;;5043023;28;20028;-81
2022/10/15 08:34:06;;;;;;;2.10;0.45;;;15.60;99.90;;;;;;5022676;28;20041;-82
2022/10/15 08:36:31;;;;;;;1.30;0.50;;;15.60;99.90;;;;;;5022236;28;20121;-82
2022/10/15 08:38:57;;;;;;;0.75;0.30;;;15.70;99.90;;;;;;5011208;28;20037;-81
2022/10/15 08:41:44;;;;;;;0.47;0.43;;;15.70;99.90;;;;;;5005567;28;20033;-82
2022/10/15 08:44:17;;;;;;;1.15;0.70;;;15.70;99.90;;;;;;5021174;28;20113;-83
2022/10/15 08:46:47;;;;;;;0.70;0.70;;;15.70;99.90;;;;;;5024554;28;20014;-82
2022/10/15 08:49:29;;;;;;;1.15;0.70;;;15.70;99.90;;;;;;5041404;28;20112;-81
2022/10/15 08:52:04;;;;;;;0.40;0.33;;;15.70;99.90;;;;;;5042315;28;20462;-83
2022/10/15 08:54:32;;;;;;;2.15;0.40;;;15.70;99.90;;;;;;5055369;28;20093;-80
2022/10/15 08:57:16;;;;;;;1.52;0.40;;;15.70;99.90;;;;;;5046439;28;20034;-83
2022/10/15 08:59:59;;;;;;;0.73;0.50;;;15.70;99.90;;;;;;5040945;28;20021;-82
2022/10/15 09:02:34;;;;;;;0.95;0.40;;;15.70;99.90;;;;;;5039974;28;20014;-81
2022/10/15 09:05:27;;;;;;;1.02;0.50;;;15.70;99.90;;;;;;5028968;28;20025;-81
2022/10/15 09:07:57;;;;;;;0.43;0.40;;;15.70;99.90;;;;;;5026083;28;20116;-82
2022/10/15 09:10:29;;;;;;;0.98;0.57;;;15.80;99.90;;;;;;5039526;28;20432;-82
2022/10/15 09:13:03;;;;;;;0.50;0.47;;;15.90;99.90;;;;;;5039905;28;20041;-82
2022/10/15 09:15:33;;;;;;;4.85;0.75;;;15.90;99.90;;;;;;5021837;28;20029;-81
2022/10/15 09:17:59;;;;;;;2.97;0.30;;;15.90;99.90;;;;;;5039053;28;20033;-81
2022/10/15 09:20:31;;;;;;;0.60;0.43;;;16.00;99.90;;;;;;5023070;28;20025;-81
2022/10/15 09:22:57;;;;;;;2.65;0.30;;;16.20;99.90;;;;;;5040469;28;20108;-80
2022/10/15 09:25:27;;;;;;;0.77;0.30;;;16.30;99.90;;;;;;5040857;28;20029;-82
2022/10/15 09:27:55;;;;;;;0.60;0.50;;;16.50;99.90;;;;;;5021379;28;20026;-82
2022/10/15 09:30:43;;;;;;;2.25;0.40;;;16.60;99.90;;;;;;5021821;28;20037;-81
2022/10/15 09:39:49;;;;;;;0.60;0.60;;;17.30;99.90;;;;;;4985755;28;20056;-83
2022/10/15 09:46:17;;;;;;;0.55;0.40;;;17.60;99.90;;;;;;4958344;29;20034;-84
2022/10/15 09:49:46;;;;;;;1.30;0.60;;;17.80;99.90;;;;;;4924707;29;20043;-83
2022/10/15 09:56:48;;;;;;;2.30;1.00;;;17.80;99.90;;;;;;4900913;29;20044;-82
2022/10/15 10:00:33;;;;;;;0.70;0.65;;;18.00;99.90;;;;;;4864704;29;20530;-84
2022/10/15 10:10:57;;;;;;;0.93;0.80;;;18.30;99.90;;;;;;4826622;29;20140;-84
2022/10/15 10:58:21;;;;;;;0.90;0.75;;;20.30;90.30;;;;;;4828928;29;20069;-84
2022/10/15 11:01:48;;;;;;;0.93;0.68;;;20.20;90.30;;;;;;4846295;29;20049;-84
2022/10/15 11:19:21;;;;;;;1.30;1.20;;;20.40;86.20;;;;;;4861938;29;20110;-84
2022/10/15 11:22:53;;;;;;;1.30;0.68;;;20.60;84.10;;;;;;4847189;29;20029;-84
2022/10/15 11:26:17;;;;;;;1.17;0.88;;;20.90;82.30;;;;;;4836716;29;20022;-81
2022/10/15 11:29:40;;;;;;;0.50;0.50;;;20.90;81.70;;;;;;4880054;29;20054;-81
2022/10/15 11:33:16;;;;;;;1.38;0.57;;;20.90;81.10;;;;;;4883878;29;20041;-82
2022/10/15 11:36:29;;;;;;;1.40;0.65;;;20.80;82.40;;;;;;4873250;29;20062;-82
2022/10/15 11:40:00;;;;;;;1.08;0.73;;;20.60;81.10;;;;;;4853712;29;20042;-83
2022/10/15 11:43:23;;;;;;;3.03;0.77;;;20.50;83.00;;;;;;4873328;29;20022;-83
2022/10/15 11:47:03;;;;;;;1.15;0.77;;;20.50;82.70;;;;;;4898365;29;20013;-83
2022/10/15 12:07:40;;;;;;;1.05;0.82;;;21.20;77.80;;;;;;4862723;29;20100;-84
2022/10/15 12:10:12;;;;;;;1.90;0.80;;;21.20;76.60;;;;;;4906539;29;20405;-83
2022/10/15 12:13:11;;;;;;;1.83;0.70;;;21.10;77.00;;;;;;4914822;29;20051;-85
2022/10/15 12:15:59;;;;;;;0.80;0.80;;;21.30;76.80;;;;;;4980689;28;20041;-84
2022/10/15 12:18:38;;;;;;;0.60;0.60;;;21.30;75.80;;;;;;4982522;28;20105;-83
2022/10/15 12:21:32;;;;;;;2.67;1.08;;;21.10;74.80;;;;;;4963041;28;20050;-83
2022/10/15 12:23:59;;;;;;;3.58;0.70;;;21.10;74.70;;;;;;4990693;28;20396;-82
2022/10/15 12:26:30;;;;;;;2.63;0.75;;;21.00;74.10;;;;;;4991450;28;20027;-83
2022/10/15 12:29:01;;;;;;;0.57;0.57;;;20.90;73.40;;;;;;4970593;28;20054;-84
2022/10/15 12:31:57;;;;;;;1.17;0.70;;;20.90;75.10;;;;;;4964752;28;20525;-83
2022/10/15 12:34:47;;;;;;;0.40;0.40;;;21.20;74.10;;;;;;4967596;28;20108;-84
2022/10/15 12:37:17;;;;;;;2.58;0.50;;;21.50;72.90;;;;;;4981741;28;20065;-84
2022/10/15 12:39:49;;;;;;;1.67;0.47;;;21.50;71.80;;;;;;4983111;28;20118;-84
2022/10/15 12:42:28;;;;;;;1.02;0.65;;;21.30;72.20;;;;;;4982961;28;20050;-84
2022/10/15 12:44:56;;;;;;;1.95;0.50;;;20.90;74.20;;;;;;4982707;28;20034;-85
2022/10/15 12:47:53;;;;;;;0.65;0.30;;;20.50;75.10;;;;;;4983914;28;20049;-85
2022/10/15 12:50:31;;;;;;;2.28;0.43;;;20.30;76.60;;;;;;4984143;28;20037;-82
2022/10/15 12:53:03;;;;;;;1.60;0.55;;;20.40;77.30;;;;;;4982390;28;20022;-83
2022/10/15 12:55:31;;;;;;;2.05;0.52;;;20.60;76.90;;;;;;4978088;28;20365;-84
2022/10/15 12:57:59;;;;;;;1.48;0.80;;;20.70;76.60;;;;;;4980582;28;20471;-84
2022/10/15 13:00:27;;;;;;;0.35;0.35;;;20.80;75.70;;;;;;4980033;28;20037;-83
2022/10/15 13:02:59;;;;;;;1.20;0.70;;;20.90;76.10;;;;;;4960068;28;20023;-85
2022/10/15 13:05:35;;;;;;;1.23;0.50;;;20.80;75.80;;;;;;4989899;28;20042;-84
2022/10/15 13:08:03;;;;;;;1.80;0.60;;;20.80;77.00;;;;;;4963090;28;20121;-84
2022/10/15 13:10:39;;;;;;;2.53;0.40;;;21.00;76.30;;;;;;4981144;28;20034;-83
2022/10/15 13:13:13;;;;;;;0.60;0.60;;;21.10;76.60;;;;;;4981125;28;20110;-83
2022/10/15 13:15:40;;;;;;;2.05;0.90;;;21.20;76.00;;;;;;4981506;28;20043;-84
2022/10/15 13:18:11;;;;;;;0.77;0.77;;;21.40;75.30;;;;;;4962197;28;20490;-85
2022/10/15 13:20:40;;;;;;;0.73;0.55;;;21.70;74.20;;;;;;4979189;28;20296;-84
2022/10/15 13:23:16;;;;;;;2.33;0.50;;;21.80;73.90;;;;;;4979025;28;20023;-83
2022/10/15 13:25:41;;;;;;;0.60;0.50;;;21.50;74.30;;;;;;4976267;28;20392;-83
2022/10/15 13:28:29;;;;;;;0.85;0.50;;;21.20;75.10;;;;;;4994543;28;20035;-84
2022/10/15 13:30:56;;;;;;;1.90;0.60;;;20.70;76.50;;;;;;4993846;28;20054;-83
2022/10/15 13:33:21;;;;;;;1.30;0.60;;;20.40;78.40;;;;;;4991537;28;20250;-85
2022/10/15 13:35:47;;;;;;;2.35;0.60;;;20.10;80.40;;;;;;4992217;28;20121;-84
2022/10/15 13:38:23;;;;;;;0.43;0.40;;;20.00;80.80;;;;;;4981516;28;20105;-84
2022/10/15 13:40:52;;;;;;;1.23;0.60;;;20.00;81.20;;;;;;4980191;28;20025;-85
2022/10/15 13:43:23;;;;;;;2.35;0.57;;;20.10;80.60;;;;;;4981601;28;20027;-84
2022/10/15 13:45:53;;;;;;;3.63;0.60;;;20.10;81.10;;;;;;4982061;28;20042;-84
2022/10/15 13:48:21;;;;;;;5.63;1.02;;;20.00;81.70;;;;;;4962869;28;20035;-85
2022/10/15 13:50:57;;;;;;;0.50;0.50;;;20.10;81.30;;;;;;4963704;28;20031;-84
2022/10/15 13:53:32;;;;;;;1.42;0.70;;;20.30;81.90;;;;;;4990580;28;20099;-83
2022/10/15 13:56:01;;;;;;;2.10;0.57;;;20.50;81.10;;;;;;4980326;28;20054;-83
2022/10/15 13:58:33;;;;;;;1.10;0.68;;;20.60;80.00;;;;;;4980144;28;20057;-84
2022/10/15 14:01:01;;;;;;;;;;;20.70;80.40;;;;;;4982182;28;20037;-85
2022/10/15 14:03:31;;;;;;;2.72;0.80;;;20.80;79.20;;;;;;4986985;28;19948;-85
2022/10/15 14:06:20;;;;;;;0.98;0.88;;;21.00;78.60;;;;;;4994734;28;20036;-85
2022/10/15 14:08:52;;;;;;;1.50;0.63;;;21.10;78.40;;;;;;4988946;28;20102;-83
2022/10/15 14:11:18;;;;;;;0.35;0.30;;;20.90;78.30;;;;;;4977762;28;20038;-84
2022/10/15 14:13:45;;;;;;;0.82;0.70;;;20.70;78.90;;;;;;4982076;28;20062;-83
2022/10/15 14:16:20;;;;;;;2.15;0.73;;;20.50;80.00;;;;;;4983852;28;20023;-83
2022/10/15 14:18:55;;;;;;;0.90;0.73;;;20.30;79.40;;;;;;4966769;28;20038;-83
2022/10/15 14:22:06;;;;;;;1.80;0.90;;;20.10;80.40;;;;;;4965728;28;20026;-84
2022/10/15 14:25:06;;;;;;;0.60;0.60;;;19.90;80.40;;;;;;4963376;28;20042;-84
2022/10/15 14:27:36;;;;;;;1.80;0.65;;;19.80;79.90;;;;;;4980031;28;20063;-84
2022/10/15 14:30:35;;;;;;;1.23;0.60;;;19.80;79.50;;;;;;4980402;28;20066;-84
2022/10/15 14:33:01;;;;;;;0.40;0.40;;;19.80;79.80;;;;;;4965603;28;20038;-84
2022/10/15 14:35:35;;;;;;;1.88;0.60;;;19.80;79.30;;;;;;4992059;28;20314;-84
2022/10/15 14:38:14;;;;;;;1.20;0.50;;;19.80;79.30;;;;;;4983934;28;20141;-84
2022/10/15 14:40:41;;;;;;;0.77;0.40;;;19.80;79.60;;;;;;4950760;29;20024;-84
2022/10/15 14:43:15;;;;;;;0.75;0.63;;;19.80;80.00;;;;;;4965149;29;20030;-84
2022/10/15 14:45:58;;;;;;;1.23;0.60;;;19.90;79.10;;;;;;4984818;28;20027;-84
2022/10/15 14:48:26;;;;;;;2.63;0.60;;;19.90;78.30;;;;;;4978076;28;20032;-82
2022/10/15 14:50:58;;;;;;;1.70;0.85;;;19.80;78.80;;;;;;4952614;29;20136;-83
2022/10/15 14:53:28;;;;;;;2.78;0.80;;;19.70;79.10;;;;;;4958774;28;20038;-83
2022/10/15 14:56:03;;;;;;;0.85;0.85;;;19.60;79.70;;;;;;4966211;28;20101;-82